Terminal Aerodrome Forecast
Issued by NWS

Home | Current Version | Previous Version | Text Only | Print | Product List | Glossary On
Versions: 1 2 3 4 5 6 7 8 9 10 11 12 13
000
FTUS45 KREV 301720
TAFMMH
TAF
KMMH 301720Z 3018/0118 12008KT P6SM SCT100 BKN180
     FM302200 21008G16KT P6SM VCTS SCT060CB BKN110
     FM010000 29011KT P6SM SCT100 BKN180
     FM010600 VRB03KT P6SM SCT180=

USA.gov is the U.S. government's official web portal to all federal, state and local government web resources and services.